sensor_id;sensor_type;location;lat;lon;timestamp;temperature;humidity
3626;DHT22;1827;50.534;8.316;2024-02-14T00:02:07;4.80;1.00
3626;DHT22;1827;50.534;8.316;2024-02-14T00:04:32;4.70;1.00
3626;DHT22;1827;50.534;8.316;2024-02-14T00:06:58;4.60;1.00
3626;DHT22;1827;50.534;8.316;2024-02-14T00:09:24;4.60;1.00
3626;DHT22;1827;50.534;8.316;2024-02-14T00:11:50;4.60;1.00
3626;DHT22;1827;50.534;8.316;2024-02-14T00:14:16;4.70;54.80
3626;DHT22;1827;50.534;8.316;2024-02-14T00:16:42;4.80;99.90
3626;DHT22;1827;50.534;8.316;2024-02-14T00:19:07;4.70;99.90
3626;DHT22;1827;50.534;8.316;2024-02-14T00:21:33;4.70;99.90
3626;DHT22;1827;50.534;8.316;2024-02-14T00:24:00;4.90;99.90
3626;DHT22;1827;50.534;8.316;2024-02-14T00:26:25;5.00;99.90
3626;DHT22;1827;50.534;8.316;2024-02-14T00:28:52;4.90;99.90
3626;DHT22;1827;50.534;8.316;2024-02-14T00:31:18;4.90;99.90
3626;DHT22;1827;50.534;8.316;2024-02-14T00:33:43;5.00;99.90
3626;DHT22;1827;50.534;8.316;2024-02-14T00:36:11;5.10;99.90
3626;DHT22;1827;50.534;8.316;2024-02-14T00:38:37;5.20;6.20
3626;DHT22;1827;50.534;8.316;2024-02-14T00:41:04;5.20;1.00
3626;DHT22;1827;50.534;8.316;2024-02-14T00:43:29;5.10;1.00
3626;DHT22;1827;50.534;8.316;2024-02-14T00:45:55;5.10;1.00
3626;DHT22;1827;50.534;8.316;2024-02-14T00:48:22;5.20;1.00
3626;DHT22;1827;50.534;8.316;2024-02-14T00:50:48;5.20;1.00
3626;DHT22;1827;50.534;8.316;2024-02-14T00:53:14;5.30;1.00
3626;DHT22;1827;50.534;8.316;2024-02-14T00:55:39;5.50;1.00
3626;DHT22;1827;50.534;8.316;2024-02-14T00:58:05;5.50;1.00
3626;DHT22;1827;50.534;8.316;2024-02-14T01:00:30;5.50;1.00
3626;DHT22;1827;50.534;8.316;2024-02-14T01:02:57;5.50;1.00
3626;DHT22;1827;50.534;8.316;2024-02-14T01:05:23;5.70;99.90
3626;DHT22;1827;50.534;8.316;2024-02-14T01:07:49;5.80;99.90
3626;DHT22;1827;50.534;8.316;2024-02-14T01:10:14;5.80;99.90
3626;DHT22;1827;50.534;8.316;2024-02-14T01:12:40;5.80;99.90
3626;DHT22;1827;50.534;8.316;2024-02-14T01:15:06;6.00;99.90
3626;DHT22;1827;50.534;8.316;2024-02-14T01:17:31;6.00;9.20
3626;DHT22;1827;50.534;8.316;2024-02-14T01:19:57;6.10;1.00
3626;DHT22;1827;50.534;8.316;2024-02-14T01:22:23;6.10;1.00
3626;DHT22;1827;50.534;8.316;2024-02-14T01:24:49;6.00;1.00
3626;DHT22;1827;50.534;8.316;2024-02-14T01:27:15;6.00;1.00
3626;DHT22;1827;50.534;8.316;2024-02-14T01:29:42;6.10;1.00
3626;DHT22;1827;50.534;8.316;2024-02-14T01:32:08;6.00;1.00
3626;DHT22;1827;50.534;8.316;2024-02-14T01:34:35;6.10;1.00
3626;DHT22;1827;50.534;8.316;2024-02-14T01:37:00;6.10;1.00
3626;DHT22;1827;50.534;8.316;2024-02-14T01:39:26;6.10;1.00
3626;DHT22;1827;50.534;8.316;2024-02-14T01:41:51;6.10;1.00
3626;DHT22;1827;50.534;8.316;2024-02-14T01:44:17;6.10;99.90
3626;DHT22;1827;50.534;8.316;2024-02-14T01:46:43;6.10;99.90
3626;DHT22;1827;50.534;8.316;2024-02-14T01:49:10;6.10;99.90
3626;DHT22;1827;50.534;8.316;2024-02-14T01:51:37;6.00;99.90
3626;DHT22;1827;50.534;8.316;2024-02-14T01:54:04;6.00;99.90
3626;DHT22;1827;50.534;8.316;2024-02-14T01:56:31;6.10;99.90
3626;DHT22;1827;50.534;8.316;2024-02-14T01:58:58;6.00;99.90
3626;DHT22;1827;50.534;8.316;2024-02-14T02:01:24;6.10;99.90
3626;DHT22;1827;50.534;8.316;2024-02-14T02:03:50;6.20;99.90
3626;DHT22;1827;50.534;8.316;2024-02-14T02:06:16;6.20;99.90
3626;DHT22;1827;50.534;8.316;2024-02-14T02:08:48;6.10;99.90
3626;DHT22;1827;50.534;8.316;2024-02-14T02:11:15;6.10;99.90
3626;DHT22;1827;50.534;8.316;2024-02-14T02:13:41;6.00;99.90
3626;DHT22;1827;50.534;8.316;2024-02-14T02:16:06;6.10;99.90
3626;DHT22;1827;50.534;8.316;2024-02-14T02:18:33;6.10;99.90
3626;DHT22;1827;50.534;8.316;2024-02-14T02:20:59;6.10;88.30
3626;DHT22;1827;50.534;8.316;2024-02-14T02:23:24;6.10;67.70
3626;DHT22;1827;50.534;8.316;2024-02-14T02:25:50;6.20;28.70
3626;DHT22;1827;50.534;8.316;2024-02-14T02:28:16;6.40;1.00
3626;DHT22;1827;50.534;8.316;2024-02-14T02:30:42;6.40;1.00
3626;DHT22;1827;50.534;8.316;2024-02-14T02:33:08;6.40;1.00
3626;DHT22;1827;50.534;8.316;2024-02-14T02:35:34;6.50;1.00
3626;DHT22;1827;50.534;8.316;2024-02-14T02:38:00;6.50;1.00
3626;DHT22;1827;50.534;8.316;2024-02-14T02:40:26;6.50;1.00
3626;DHT22;1827;50.534;8.316;2024-02-14T02:43:00;6.50;1.00
3626;DHT22;1827;50.534;8.316;2024-02-14T02:45:26;6.60;1.00
3626;DHT22;1827;50.534;8.316;2024-02-14T02:47:52;6.50;1.00
3626;DHT22;1827;50.534;8.316;2024-02-14T02:50:17;6.60;1.00
3626;DHT22;1827;50.534;8.316;2024-02-14T02:52:43;6.60;1.00
3626;DHT22;1827;50.534;8.316;2024-02-14T02:55:09;6.60;1.00
3626;DHT22;1827;50.534;8.316;2024-02-14T02:57:35;6.60;1.00
3626;DHT22;1827;50.534;8.316;2024-02-14T03:00:03;6.50;1.00
3626;DHT22;1827;50.534;8.316;2024-02-14T03:02:30;6.60;1.00
3626;DHT22;1827;50.534;8.316;2024-02-14T03:04:56;6.60;1.00
3626;DHT22;1827;50.534;8.316;2024-02-14T03:07:22;6.70;1.00
3626;DHT22;1827;50.534;8.316;2024-02-14T03:09:49;6.60;1.00
3626;DHT22;1827;50.534;8.316;2024-02-14T03:12:14;6.60;1.00
3626;DHT22;1827;50.534;8.316;2024-02-14T03:14:41;6.60;1.00
3626;DHT22;1827;50.534;8.316;2024-02-14T03:17:08;6.70;1.00
3626;DHT22;1827;50.534;8.316;2024-02-14T03:19:35;6.60;1.00
3626;DHT22;1827;50.534;8.316;2024-02-14T03:22:04;6.60;1.00
3626;DHT22;1827;50.534;8.316;2024-02-14T03:24:31;6.60;1.00
3626;DHT22;1827;50.534;8.316;2024-02-14T03:26:56;6.60;1.00
3626;DHT22;1827;50.534;8.316;2024-02-14T03:29:22;6.70;1.00
3626;DHT22;1827;50.534;8.316;2024-02-14T03:31:48;6.70;1.00
3626;DHT22;1827;50.534;8.316;2024-02-14T03:34:14;6.80;1.00
3626;DHT22;1827;50.534;8.316;2024-02-14T03:36:39;6.80;1.00
3626;DHT22;1827;50.534;8.316;2024-02-14T03:39:05;6.90;1.00
3626;DHT22;1827;50.534;8.316;2024-02-14T03:41:32;6.90;1.00
3626;DHT22;1827;50.534;8.316;2024-02-14T03:43:57;6.90;1.00
3626;DHT22;1827;50.534;8.316;2024-02-14T03:46:28;6.90;1.00
3626;DHT22;1827;50.534;8.316;2024-02-14T03:48:54;6.90;1.00
3626;DHT22;1827;50.534;8.316;2024-02-14T03:51:20;6.90;1.00
3626;DHT22;1827;50.534;8.316;2024-02-14T03:53:46;6.90;1.00
3626;DHT22;1827;50.534;8.316;2024-02-14T03:56:11;6.90;1.00
3626;DHT22;1827;50.534;8.316;2024-02-14T03:58:38;7.00;1.00
3626;DHT22;1827;50.534;8.316;2024-02-14T04:01:04;7.00;1.00
3626;DHT22;1827;50.534;8.316;2024-02-14T04:03:29;7.00;1.00
3626;DHT22;1827;50.534;8.316;2024-02-14T04:05:55;7.10;1.00
3626;DHT22;1827;50.534;8.316;2024-02-14T04:08:21;7.10;1.00
3626;DHT22;1827;50.534;8.316;2024-02-14T04:10:47;7.10;1.00
3626;DHT22;1827;50.534;8.316;2024-02-14T04:13:15;7.20;1.00
3626;DHT22;1827;50.534;8.316;2024-02-14T04:15:40;7.30;1.00
3626;DHT22;1827;50.534;8.316;2024-02-14T04:18:08;7.20;1.00
3626;DHT22;1827;50.534;8.316;2024-02-14T04:20:34;7.20;1.00
3626;DHT22;1827;50.534;8.316;2024-02-14T04:22:59;7.20;1.00
3626;DHT22;1827;50.534;8.316;2024-02-14T04:25:25;7.20;1.00
3626;DHT22;1827;50.534;8.316;2024-02-14T04:27:51;7.10;1.00
3626;DHT22;1827;50.534;8.316;2024-02-14T04:30:16;7.10;1.00
3626;DHT22;1827;50.534;8.316;2024-02-14T04:32:42;7.00;1.00
3626;DHT22;1827;50.534;8.316;2024-02-14T04:35:09;7.00;1.00
3626;DHT22;1827;50.534;8.316;2024-02-14T04:37:34;7.00;1.00
3626;DHT22;1827;50.534;8.316;2024-02-14T04:40:00;7.00;1.00
3626;DHT22;1827;50.534;8.316;2024-02-14T04:42:26;7.10;1.00
3626;DHT22;1827;50.534;8.316;2024-02-14T04:44:52;7.00;1.00
3626;DHT22;1827;50.534;8.316;2024-02-14T04:47:17;7.10;1.00
3626;DHT22;1827;50.534;8.316;2024-02-14T04:49:43;7.00;1.00
3626;DHT22;1827;50.534;8.316;2024-02-14T04:52:08;7.10;1.00
3626;DHT22;1827;50.534;8.316;2024-02-14T04:54:34;7.10;1.00
3626;DHT22;1827;50.534;8.316;2024-02-14T04:57:00;7.10;1.00
3626;DHT22;1827;50.534;8.316;2024-02-14T04:59:25;7.00;1.00
3626;DHT22;1827;50.534;8.316;2024-02-14T05:01:51;7.00;1.00
3626;DHT22;1827;50.534;8.316;2024-02-14T05:04:18;7.00;1.00
3626;DHT22;1827;50.534;8.316;2024-02-14T05:06:44;7.10;1.00
3626;DHT22;1827;50.534;8.316;2024-02-14T05:09:10;7.10;1.00
3626;DHT22;1827;50.534;8.316;2024-02-14T05:11:40;7.10;1.00
3626;DHT22;1827;50.534;8.316;2024-02-14T05:14:05;7.10;1.00
3626;DHT22;1827;50.534;8.316;2024-02-14T05:16:31;7.20;1.00
3626;DHT22;1827;50.534;8.316;2024-02-14T05:18:57;7.20;1.00
3626;DHT22;1827;50.534;8.316;2024-02-14T05:21:22;7.20;1.00
3626;DHT22;1827;50.534;8.316;2024-02-14T05:23:48;7.20;1.00
3626;DHT22;1827;50.534;8.316;2024-02-14T05:26:13;7.20;1.00
3626;DHT22;1827;50.534;8.316;2024-02-14T05:28:39;7.20;1.00
3626;DHT22;1827;50.534;8.316;2024-02-14T05:31:05;7.20;1.00
3626;DHT22;1827;50.534;8.316;2024-02-14T05:33:30;7.20;1.00
3626;DHT22;1827;50.534;8.316;2024-02-14T05:35:56;7.20;1.00
3626;DHT22;1827;50.534;8.316;2024-02-14T05:38:21;7.20;1.00
3626;DHT22;1827;50.534;8.316;2024-02-14T05:40:47;7.20;1.00
3626;DHT22;1827;50.534;8.316;2024-02-14T05:43:13;7.20;1.00
3626;DHT22;1827;50.534;8.316;2024-02-14T05:45:39;7.20;1.00
3626;DHT22;1827;50.534;8.316;2024-02-14T05:48:04;7.20;1.00
3626;DHT22;1827;50.534;8.316;2024-02-14T05:50:30;7.20;1.00
3626;DHT22;1827;50.534;8.316;2024-02-14T05:52:56;7.20;1.00
3626;DHT22;1827;50.534;8.316;2024-02-14T05:55:25;7.20;1.00
3626;DHT22;1827;50.534;8.316;2024-02-14T05:57:50;7.20;1.00
3626;DHT22;1827;50.534;8.316;2024-02-14T06:00:17;7.20;1.00
3626;DHT22;1827;50.534;8.316;2024-02-14T06:02:44;7.20;1.00
3626;DHT22;1827;50.534;8.316;2024-02-14T06:05:10;7.20;1.00
3626;DHT22;1827;50.534;8.316;2024-02-14T06:07:36;7.20;1.00
3626;DHT22;1827;50.534;8.316;2024-02-14T06:10:02;7.10;1.00
3626;DHT22;1827;50.534;8.316;2024-02-14T06:12:27;7.10;1.00
3626;DHT22;1827;50.534;8.316;2024-02-14T06:14:55;7.10;1.00
3626;DHT22;1827;50.534;8.316;2024-02-14T06:17:20;7.00;1.00
3626;DHT22;1827;50.534;8.316;2024-02-14T06:19:46;7.00;21.30
3626;DHT22;1827;50.534;8.316;2024-02-14T06:22:11;7.00;89.60
3626;DHT22;1827;50.534;8.316;2024-02-14T06:24:37;7.00;99.90
3626;DHT22;1827;50.534;8.316;2024-02-14T06:27:03;6.90;99.90
3626;DHT22;1827;50.534;8.316;2024-02-14T06:29:28;6.90;99.90
3626;DHT22;1827;50.534;8.316;2024-02-14T06:31:54;6.90;99.90
3626;DHT22;1827;50.534;8.316;2024-02-14T06:34:19;6.90;99.90
3626;DHT22;1827;50.534;8.316;2024-02-14T06:36:48;6.80;99.90
3626;DHT22;1827;50.534;8.316;2024-02-14T06:39:14;6.80;1.00
3626;DHT22;1827;50.534;8.316;2024-02-14T06:41:39;6.70;1.00
3626;DHT22;1827;50.534;8.316;2024-02-14T06:44:05;6.70;1.00
3626;DHT22;1827;50.534;8.316;2024-02-14T06:46:31;6.70;1.00
3626;DHT22;1827;50.534;8.316;2024-02-14T06:48:57;6.80;1.00
3626;DHT22;1827;50.534;8.316;2024-02-14T06:51:22;6.70;1.00
3626;DHT22;1827;50.534;8.316;2024-02-14T06:53:49;6.70;1.00
3626;DHT22;1827;50.534;8.316;2024-02-14T06:56:15;6.70;1.00
3626;DHT22;1827;50.534;8.316;2024-02-14T06:58:40;6.80;1.00
3626;DHT22;1827;50.534;8.316;2024-02-14T07:01:06;6.80;1.00
3626;DHT22;1827;50.534;8.316;2024-02-14T07:03:32;6.80;14.60
3626;DHT22;1827;50.534;8.316;2024-02-14T07:05:57;6.80;76.30
3626;DHT22;1827;50.534;8.316;2024-02-14T07:08:23;6.80;99.90
3626;DHT22;1827;50.534;8.316;2024-02-14T07:10:51;6.80;99.90
3626;DHT22;1827;50.534;8.316;2024-02-14T07:13:17;6.80;99.90
3626;DHT22;1827;50.534;8.316;2024-02-14T07:15:43;6.90;99.90
3626;DHT22;1827;50.534;8.316;2024-02-14T07:18:08;6.90;99.90
3626;DHT22;1827;50.534;8.316;2024-02-14T07:20:35;7.00;99.90
3626;DHT22;1827;50.534;8.316;2024-02-14T07:23:00;7.00;99.90
3626;DHT22;1827;50.534;8.316;2024-02-14T07:25:27;7.00;99.90
3626;DHT22;1827;50.534;8.316;2024-02-14T07:27:52;7.00;99.90
3626;DHT22;1827;50.534;8.316;2024-02-14T07:30:18;7.00;1.00
3626;DHT22;1827;50.534;8.316;2024-02-14T07:32:44;7.00;1.00
3626;DHT22;1827;50.534;8.316;2024-02-14T07:35:10;7.00;1.00
3626;DHT22;1827;50.534;8.316;2024-02-14T07:37:36;7.00;1.00
3626;DHT22;1827;50.534;8.316;2024-02-14T07:40:02;7.00;1.00
3626;DHT22;1827;50.534;8.316;2024-02-14T07:42:28;7.00;1.00
3626;DHT22;1827;50.534;8.316;2024-02-14T07:44:54;7.10;1.00
3626;DHT22;1827;50.534;8.316;2024-02-14T07:47:21;7.10;1.00
3626;DHT22;1827;50.534;8.316;2024-02-14T07:49:47;7.20;1.00
3626;DHT22;1827;50.534;8.316;2024-02-14T07:52:13;7.20;1.00
3626;DHT22;1827;50.534;8.316;2024-02-14T07:54:39;7.30;1.00
3626;DHT22;1827;50.534;8.316;2024-02-14T07:57:04;7.40;1.00
3626;DHT22;1827;50.534;8.316;2024-02-14T07:59:30;7.40;1.00
3626;DHT22;1827;50.534;8.316;2024-02-14T08:01:56;7.40;1.00
3626;DHT22;1827;50.534;8.316;2024-02-14T08:04:25;7.50;1.00
3626;DHT22;1827;50.534;8.316;2024-02-14T08:06:51;7.50;1.00
3626;DHT22;1827;50.534;8.316;2024-02-14T08:09:17;7.60;1.00
3626;DHT22;1827;50.534;8.316;2024-02-14T08:11:42;7.60;1.00
3626;DHT22;1827;50.534;8.316;2024-02-14T08:14:08;7.60;1.00
3626;DHT22;1827;50.534;8.316;2024-02-14T08:16:34;7.60;1.00
3626;DHT22;1827;50.534;8.316;2024-02-14T08:19:01;7.60;99.90
3626;DHT22;1827;50.534;8.316;2024-02-14T08:21:27;7.70;99.90
3626;DHT22;1827;50.534;8.316;2024-02-14T08:23:53;7.80;99.90
3626;DHT22;1827;50.534;8.316;2024-02-14T08:26:21;7.80;99.90
3626;DHT22;1827;50.534;8.316;2024-02-14T08:28:48;7.70;99.90
3626;DHT22;1827;50.534;8.316;2024-02-14T08:31:17;7.80;99.90
3626;DHT22;1827;50.534;8.316;2024-02-14T08:33:46;7.80;99.90
3626;DHT22;1827;50.534;8.316;2024-02-14T08:36:12;7.90;99.90
3626;DHT22;1827;50.534;8.316;2024-02-14T08:38:41;7.90;99.90
3626;DHT22;1827;50.534;8.316;2024-02-14T08:41:06;8.00;99.90
3626;DHT22;1827;50.534;8.316;2024-02-14T08:43:33;8.10;99.90
3626;DHT22;1827;50.534;8.316;2024-02-14T08:45:59;8.10;99.90
3626;DHT22;1827;50.534;8.316;2024-02-14T08:48:25;8.10;93.90
3626;DHT22;1827;50.534;8.316;2024-02-14T08:50:55;8.10;43.30
3626;DHT22;1827;50.534;8.316;2024-02-14T08:53:20;8.30;13.50
3626;DHT22;1827;50.534;8.316;2024-02-14T08:55:56;8.40;1.00
3626;DHT22;1827;50.534;8.316;2024-02-14T08:58:23;8.60;1.00
3626;DHT22;1827;50.534;8.316;2024-02-14T09:00:52;8.60;1.00
3626;DHT22;1827;50.534;8.316;2024-02-14T09:03:20;8.70;1.00
3626;DHT22;1827;50.534;8.316;2024-02-14T09:05:46;8.90;1.00
3626;DHT22;1827;50.534;8.316;2024-02-14T09:08:13;9.00;1.00
3626;DHT22;1827;50.534;8.316;2024-02-14T09:10:38;9.20;1.00
3626;DHT22;1827;50.534;8.316;2024-02-14T09:13:04;9.30;1.00
3626;DHT22;1827;50.534;8.316;2024-02-14T09:15:33;9.50;1.00
3626;DHT22;1827;50.534;8.316;2024-02-14T09:17:58;10.00;1.00
3626;DHT22;1827;50.534;8.316;2024-02-14T09:20:25;10.10;99.90
3626;DHT22;1827;50.534;8.316;2024-02-14T09:22:51;10.10;99.90
3626;DHT22;1827;50.534;8.316;2024-02-14T09:25:16;10.10;99.90
3626;DHT22;1827;50.534;8.316;2024-02-14T09:27:42;10.10;99.90
3626;DHT22;1827;50.534;8.316;2024-02-14T09:30:09;10.40;99.90
3626;DHT22;1827;50.534;8.316;2024-02-14T09:32:36;10.90;65.50
3626;DHT22;1827;50.534;8.316;2024-02-14T09:35:02;10.80;1.00
3626;DHT22;1827;50.534;8.316;2024-02-14T09:37:32;10.70;1.00
3626;DHT22;1827;50.534;8.316;2024-02-14T09:39:58;10.70;1.00
3626;DHT22;1827;50.534;8.316;2024-02-14T09:42:28;10.60;1.00
3626;DHT22;1827;50.534;8.316;2024-02-14T09:44:58;10.50;1.00
3626;DHT22;1827;50.534;8.316;2024-02-14T09:47:27;10.50;1.00
3626;DHT22;1827;50.534;8.316;2024-02-14T09:49:55;10.60;1.00
3626;DHT22;1827;50.534;8.316;2024-02-14T09:52:22;10.60;1.00
3626;DHT22;1827;50.534;8.316;2024-02-14T09:54:49;10.50;1.00
3626;DHT22;1827;50.534;8.316;2024-02-14T09:57:14;10.50;1.00
3626;DHT22;1827;50.534;8.316;2024-02-14T09:59:42;10.60;1.00
3626;DHT22;1827;50.534;8.316;2024-02-14T10:02:08;10.60;1.00
3626;DHT22;1827;50.534;8.316;2024-02-14T10:04:37;10.50;1.00
3626;DHT22;1827;50.534;8.316;2024-02-14T10:07:04;10.60;1.00
3626;DHT22;1827;50.534;8.316;2024-02-14T10:09:30;10.70;1.00
3626;DHT22;1827;50.534;8.316;2024-02-14T10:11:56;10.80;1.00
3626;DHT22;1827;50.534;8.316;2024-02-14T10:14:23;11.10;1.00
3626;DHT22;1827;50.534;8.316;2024-02-14T10:16:49;11.10;1.00
3626;DHT22;1827;50.534;8.316;2024-02-14T10:19:15;11.00;1.00
3626;DHT22;1827;50.534;8.316;2024-02-14T10:21:41;11.30;1.00
3626;DHT22;1827;50.534;8.316;2024-02-14T10:24:09;11.50;1.00
3626;DHT22;1827;50.534;8.316;2024-02-14T10:26:45;11.70;1.00
3626;DHT22;1827;50.534;8.316;2024-02-14T10:29:11;11.70;1.00
3626;DHT22;1827;50.534;8.316;2024-02-14T10:31:37;11.90;1.00
3626;DHT22;1827;50.534;8.316;2024-02-14T10:34:03;11.90;99.90
3626;DHT22;1827;50.534;8.316;2024-02-14T10:36:31;11.70;99.90
3626;DHT22;1827;50.534;8.316;2024-02-14T10:38:59;11.60;99.90
3626;DHT22;1827;50.534;8.316;2024-02-14T10:41:26;11.70;99.90
3626;DHT22;1827;50.534;8.316;2024-02-14T10:43:52;11.80;99.90
3626;DHT22;1827;50.534;8.316;2024-02-14T10:46:22;11.70;99.90
3626;DHT22;1827;50.534;8.316;2024-02-14T10:48:50;11.50;99.90
3626;DHT22;1827;50.534;8.316;2024-02-14T10:51:26;11.60;99.90
3626;DHT22;1827;50.534;8.316;2024-02-14T10:53:55;11.80;99.90
3626;DHT22;1827;50.534;8.316;2024-02-14T10:56:21;11.70;99.90
3626;DHT22;1827;50.534;8.316;2024-02-14T10:58:49;11.70;99.90
3626;DHT22;1827;50.534;8.316;2024-02-14T11:01:17;11.80;99.90
3626;DHT22;1827;50.534;8.316;2024-02-14T11:03:43;11.60;99.90
3626;DHT22;1827;50.534;8.316;2024-02-14T11:06:14;11.70;99.90
3626;DHT22;1827;50.534;8.316;2024-02-14T11:08:40;11.60;99.90
3626;DHT22;1827;50.534;8.316;2024-02-14T11:11:11;11.70;99.90
3626;DHT22;1827;50.534;8.316;2024-02-14T11:13:37;11.80;99.90
3626;DHT22;1827;50.534;8.316;2024-02-14T11:16:02;12.00;99.90
3626;DHT22;1827;50.534;8.316;2024-02-14T11:18:32;12.00;99.90
3626;DHT22;1827;50.534;8.316;2024-02-14T11:21:04;12.00;99.90
3626;DHT22;1827;50.534;8.316;2024-02-14T11:23:30;12.00;99.90
3626;DHT22;1827;50.534;8.316;2024-02-14T11:25:59;12.00;99.90
3626;DHT22;1827;50.534;8.316;2024-02-14T11:28:25;12.10;99.90
3626;DHT22;1827;50.534;8.316;2024-02-14T11:30:53;12.00;93.90
3626;DHT22;1827;50.534;8.316;2024-02-14T11:33:29;12.00;86.00
3626;DHT22;1827;50.534;8.316;2024-02-14T11:40:06;12.00;63.20
3626;DHT22;1827;50.534;8.316;2024-02-14T11:42:33;12.10;56.50
3626;DHT22;1827;50.534;8.316;2024-02-14T11:45:04;12.20;59.20
3626;DHT22;1827;50.534;8.316;2024-02-14T11:47:36;12.20;47.70
3626;DHT22;1827;50.534;8.316;2024-02-14T11:50:03;12.20;37.90
3626;DHT22;1827;50.534;8.316;2024-02-14T11:52:29;12.30;29.10
3626;DHT22;1827;50.534;8.316;2024-02-14T11:54:55;12.40;21.20
3626;DHT22;1827;50.534;8.316;2024-02-14T11:57:22;12.60;17.20
3626;DHT22;1827;50.534;8.316;2024-02-14T11:59:48;12.70;2.90
3626;DHT22;1827;50.534;8.316;2024-02-14T12:02:16;12.70;1.00
3626;DHT22;1827;50.534;8.316;2024-02-14T12:04:42;12.70;1.00
3626;DHT22;1827;50.534;8.316;2024-02-14T12:07:07;12.70;1.00
3626;DHT22;1827;50.534;8.316;2024-02-14T12:09:33;12.40;1.00
3626;DHT22;1827;50.534;8.316;2024-02-14T12:11:59;12.40;1.00
3626;DHT22;1827;50.534;8.316;2024-02-14T12:14:26;12.40;1.00
3626;DHT22;1827;50.534;8.316;2024-02-14T12:17:00;12.40;1.00
3626;DHT22;1827;50.534;8.316;2024-02-14T12:19:29;12.30;1.00
3626;DHT22;1827;50.534;8.316;2024-02-14T12:21:56;12.30;1.00
3626;DHT22;1827;50.534;8.316;2024-02-14T12:24:27;12.10;1.00
3626;DHT22;1827;50.534;8.316;2024-02-14T12:26:53;12.10;1.00
3626;DHT22;1827;50.534;8.316;2024-02-14T12:29:18;11.80;1.00
3626;DHT22;1827;50.534;8.316;2024-02-14T12:31:44;11.80;1.00
3626;DHT22;1827;50.534;8.316;2024-02-14T12:34:10;11.80;1.00
3626;DHT22;1827;50.534;8.316;2024-02-14T12:36:36;11.70;1.00
3626;DHT22;1827;50.534;8.316;2024-02-14T12:39:02;11.80;1.00
3626;DHT22;1827;50.534;8.316;2024-02-14T12:41:28;11.70;1.00
3626;DHT22;1827;50.534;8.316;2024-02-14T12:43:57;11.80;1.00
3626;DHT22;1827;50.534;8.316;2024-02-14T12:46:23;11.70;1.00
3626;DHT22;1827;50.534;8.316;2024-02-14T12:48:48;11.70;1.00
3626;DHT22;1827;50.534;8.316;2024-02-14T12:51:14;11.70;1.00
3626;DHT22;1827;50.534;8.316;2024-02-14T12:53:40;11.70;1.00
3626;DHT22;1827;50.534;8.316;2024-02-14T12:56:06;11.70;1.00
3626;DHT22;1827;50.534;8.316;2024-02-14T12:58:32;11.60;1.00
3626;DHT22;1827;50.534;8.316;2024-02-14T13:00:58;11.50;8.70
3626;DHT22;1827;50.534;8.316;2024-02-14T13:03:24;11.60;22.60
3626;DHT22;1827;50.534;8.316;2024-02-14T13:05:50;11.50;50.30
3626;DHT22;1827;50.534;8.316;2024-02-14T13:08:18;11.60;87.00
3626;DHT22;1827;50.534;8.316;2024-02-14T13:10:44;11.50;99.90
3626;DHT22;1827;50.534;8.316;2024-02-14T13:13:10;11.50;99.90
3626;DHT22;1827;50.534;8.316;2024-02-14T13:15:35;11.40;99.90
3626;DHT22;1827;50.534;8.316;2024-02-14T13:18:01;11.40;99.90
3626;DHT22;1827;50.534;8.316;2024-02-14T13:20:28;11.30;99.90
3626;DHT22;1827;50.534;8.316;2024-02-14T13:22:54;11.30;99.90
3626;DHT22;1827;50.534;8.316;2024-02-14T13:25:20;11.20;99.90
3626;DHT22;1827;50.534;8.316;2024-02-14T13:27:47;11.20;99.90
3626;DHT22;1827;50.534;8.316;2024-02-14T13:30:13;11.20;99.90
3626;DHT22;1827;50.534;8.316;2024-02-14T13:32:38;11.20;99.90
3626;DHT22;1827;50.534;8.316;2024-02-14T13:35:04;11.10;99.90
3626;DHT22;1827;50.534;8.316;2024-02-14T13:37:31;11.20;99.90
3626;DHT22;1827;50.534;8.316;2024-02-14T13:39:57;11.10;99.90
3626;DHT22;1827;50.534;8.316;2024-02-14T13:42:23;11.20;99.90
3626;DHT22;1827;50.534;8.316;2024-02-14T13:44:48;11.20;99.90
3626;DHT22;1827;50.534;8.316;2024-02-14T13:47:17;11.20;1.00
3626;DHT22;1827;50.534;8.316;2024-02-14T13:49:43;11.20;1.00
3626;DHT22;1827;50.534;8.316;2024-02-14T13:52:12;11.20;1.00
3626;DHT22;1827;50.534;8.316;2024-02-14T13:54:41;11.20;1.00
3626;DHT22;1827;50.534;8.316;2024-02-14T13:57:08;11.20;1.00
3626;DHT22;1827;50.534;8.316;2024-02-14T13:59:35;11.20;1.00
3626;DHT22;1827;50.534;8.316;2024-02-14T14:02:01;11.20;1.00
3626;DHT22;1827;50.534;8.316;2024-02-14T14:04:30;11.30;1.00
3626;DHT22;1827;50.534;8.316;2024-02-14T14:06:58;11.20;1.00
3626;DHT22;1827;50.534;8.316;2024-02-14T14:09:32;11.20;1.00
3626;DHT22;1827;50.534;8.316;2024-02-14T14:12:00;11.20;1.00
3626;DHT22;1827;50.534;8.316;2024-02-14T14:14:43;11.20;1.00
3626;DHT22;1827;50.534;8.316;2024-02-14T14:17:12;11.20;99.90
3626;DHT22;1827;50.534;8.316;2024-02-14T14:19:42;11.20;99.90
3626;DHT22;1827;50.534;8.316;2024-02-14T14:22:09;11.10;99.90
3626;DHT22;1827;50.534;8.316;2024-02-14T14:24:44;11.10;99.90
3626;DHT22;1827;50.534;8.316;2024-02-14T14:27:13;11.10;1.00
3626;DHT22;1827;50.534;8.316;2024-02-14T14:29:41;11.20;1.00
3626;DHT22;1827;50.534;8.316;2024-02-14T14:32:07;11.20;1.00
3626;DHT22;1827;50.534;8.316;2024-02-14T14:34:32;11.10;1.00
3626;DHT22;1827;50.534;8.316;2024-02-14T14:36:58;11.10;1.00
3626;DHT22;1827;50.534;8.316;2024-02-14T14:39:26;11.10;1.00
3626;DHT22;1827;50.534;8.316;2024-02-14T14:41:53;11.10;1.00
3626;DHT22;1827;50.534;8.316;2024-02-14T14:44:22;11.20;1.00
3626;DHT22;1827;50.534;8.316;2024-02-14T14:46:47;11.20;1.00
3626;DHT22;1827;50.534;8.316;2024-02-14T14:49:15;11.20;1.00
3626;DHT22;1827;50.534;8.316;2024-02-14T14:51:40;11.10;1.00
3626;DHT22;1827;50.534;8.316;2024-02-14T14:54:06;11.10;1.00
3626;DHT22;1827;50.534;8.316;2024-02-14T14:56:41;11.10;1.00
3626;DHT22;1827;50.534;8.316;2024-02-14T14:59:07;11.10;1.00
3626;DHT22;1827;50.534;8.316;2024-02-14T15:01:35;11.10;1.00
3626;DHT22;1827;50.534;8.316;2024-02-14T15:04:01;11.00;1.00
3626;DHT22;1827;50.534;8.316;2024-02-14T15:06:30;11.00;1.00
3626;DHT22;1827;50.534;8.316;2024-02-14T15:08:59;10.90;1.00
3626;DHT22;1827;50.534;8.316;2024-02-14T15:11:25;10.90;1.00
3626;DHT22;1827;50.534;8.316;2024-02-14T15:13:50;10.90;1.00
3626;DHT22;1827;50.534;8.316;2024-02-14T15:16:19;10.80;1.00
3626;DHT22;1827;50.534;8.316;2024-02-14T15:19:06;10.80;1.00
3626;DHT22;1827;50.534;8.316;2024-02-14T15:21:32;10.90;1.00
3626;DHT22;1827;50.534;8.316;2024-02-14T15:23:58;10.90;1.00
3626;DHT22;1827;50.534;8.316;2024-02-14T15:26:23;10.90;1.00
3626;DHT22;1827;50.534;8.316;2024-02-14T15:28:50;11.00;1.00
3626;DHT22;1827;50.534;8.316;2024-02-14T15:31:24;10.90;1.00
3626;DHT22;1827;50.534;8.316;2024-02-14T15:34:08;10.90;1.00
3626;DHT22;1827;50.534;8.316;2024-02-14T15:36:36;10.90;1.00
3626;DHT22;1827;50.534;8.316;2024-02-14T15:39:01;10.90;1.00
3626;DHT22;1827;50.534;8.316;2024-02-14T15:41:27;10.90;1.00
3626;DHT22;1827;50.534;8.316;2024-02-14T15:43:53;10.80;1.00
3626;DHT22;1827;50.534;8.316;2024-02-14T15:46:18;10.70;1.00
3626;DHT22;1827;50.534;8.316;2024-02-14T15:48:44;10.70;1.00
3626;DHT22;1827;50.534;8.316;2024-02-14T15:51:09;10.70;1.00
3626;DHT22;1827;50.534;8.316;2024-02-14T15:53:35;10.70;1.00
3626;DHT22;1827;50.534;8.316;2024-02-14T15:56:01;10.70;5.40
3626;DHT22;1827;50.534;8.316;2024-02-14T15:58:27;10.70;18.90
3626;DHT22;1827;50.534;8.316;2024-02-14T16:00:53;10.70;36.20
3626;DHT22;1827;50.534;8.316;2024-02-14T16:03:21;10.60;81.90
3626;DHT22;1827;50.534;8.316;2024-02-14T16:05:46;10.60;99.90
3626;DHT22;1827;50.534;8.316;2024-02-14T16:08:14;10.60;99.90
3626;DHT22;1827;50.534;8.316;2024-02-14T16:10:40;10.60;99.90
3626;DHT22;1827;50.534;8.316;2024-02-14T16:13:06;10.60;99.90
3626;DHT22;1827;50.534;8.316;2024-02-14T16:15:32;10.60;99.90
3626;DHT22;1827;50.534;8.316;2024-02-14T16:17:59;10.50;99.90
3626;DHT22;1827;50.534;8.316;2024-02-14T16:20:25;10.50;99.90
3626;DHT22;1827;50.534;8.316;2024-02-14T16:22:50;10.50;99.90